sensor_id;sensor_type;location;lat;lon;timestamp;pressure;altitude;pressure_sealevel;temperature
15680;BMP180;15488;48.114;11.532;2022-07-10T00:02:15;95889.00;;;27.50
15680;BMP180;15488;48.114;11.532;2022-07-10T00:04:42;95893.00;;;27.50
15680;BMP180;15488;48.114;11.532;2022-07-10T00:07:10;95900.00;;;27.50
15680;BMP180;15488;48.114;11.532;2022-07-10T00:09:39;95891.00;;;27.50
15680;BMP180;15488;48.114;11.532;2022-07-10T00:12:07;95899.00;;;27.50
15680;BMP180;15488;48.114;11.532;2022-07-10T00:14:34;95896.00;;;27.50
15680;BMP180;15488;48.114;11.532;2022-07-10T00:17:02;95892.00;;;27.50
15680;BMP180;15488;48.114;11.532;2022-07-10T00:19:30;95893.00;;;27.50
15680;BMP180;15488;48.114;11.532;2022-07-10T00:21:58;95902.00;;;27.50
15680;BMP180;15488;48.114;11.532;2022-07-10T00:24:25;95909.00;;;27.50
15680;BMP180;15488;48.114;11.532;2022-07-10T00:26:54;95914.00;;;27.50
15680;BMP180;15488;48.114;11.532;2022-07-10T00:29:22;95916.00;;;27.50
15680;BMP180;15488;48.114;11.532;2022-07-10T00:31:49;95916.00;;;27.60
15680;BMP180;15488;48.114;11.532;2022-07-10T00:34:17;95917.00;;;27.60
15680;BMP180;15488;48.114;11.532;2022-07-10T00:36:47;95924.00;;;27.60
15680;BMP180;15488;48.114;11.532;2022-07-10T00:39:14;95929.00;;;27.60
15680;BMP180;15488;48.114;11.532;2022-07-10T00:41:43;95929.00;;;27.60
15680;BMP180;15488;48.114;11.532;2022-07-10T00:44:12;95933.00;;;27.60
15680;BMP180;15488;48.114;11.532;2022-07-10T00:46:39;95939.00;;;27.60
15680;BMP180;15488;48.114;11.532;2022-07-10T00:49:07;95936.00;;;27.50
15680;BMP180;15488;48.114;11.532;2022-07-10T00:51:35;95928.00;;;27.50
15680;BMP180;15488;48.114;11.532;2022-07-10T00:54:05;95921.00;;;27.40
15680;BMP180;15488;48.114;11.532;2022-07-10T00:56:33;95917.00;;;27.30
15680;BMP180;15488;48.114;11.532;2022-07-10T00:59:00;95916.00;;;27.30
15680;BMP180;15488;48.114;11.532;2022-07-10T01:01:30;95920.00;;;27.20
15680;BMP180;15488;48.114;11.532;2022-07-10T01:03:57;95921.00;;;27.20
15680;BMP180;15488;48.114;11.532;2022-07-10T01:06:25;95922.00;;;27.20
15680;BMP180;15488;48.114;11.532;2022-07-10T01:08:52;95918.00;;;27.10
15680;BMP180;15488;48.114;11.532;2022-07-10T01:11:20;95916.00;;;27.10
15680;BMP180;15488;48.114;11.532;2022-07-10T01:13:48;95917.00;;;27.10
15680;BMP180;15488;48.114;11.532;2022-07-10T01:16:16;95920.00;;;27.00
15680;BMP180;15488;48.114;11.532;2022-07-10T01:18:45;95908.00;;;27.00
15680;BMP180;15488;48.114;11.532;2022-07-10T01:21:28;95903.00;;;27.00
15680;BMP180;15488;48.114;11.532;2022-07-10T01:23:56;95910.00;;;27.00
15680;BMP180;15488;48.114;11.532;2022-07-10T01:26:24;95906.00;;;27.00
15680;BMP180;15488;48.114;11.532;2022-07-10T01:28:52;95899.00;;;26.90
15680;BMP180;15488;48.114;11.532;2022-07-10T01:31:20;95898.00;;;26.90
15680;BMP180;15488;48.114;11.532;2022-07-10T01:33:51;95896.00;;;26.90
15680;BMP180;15488;48.114;11.532;2022-07-10T01:36:20;95902.00;;;26.90
15680;BMP180;15488;48.114;11.532;2022-07-10T01:38:51;95893.00;;;26.80
15680;BMP180;15488;48.114;11.532;2022-07-10T01:41:19;95901.00;;;26.80
15680;BMP180;15488;48.114;11.532;2022-07-10T01:43:46;95891.00;;;26.70
15680;BMP180;15488;48.114;11.532;2022-07-10T01:46:14;95897.00;;;26.70
15680;BMP180;15488;48.114;11.532;2022-07-10T01:48:42;95891.00;;;26.70
15680;BMP180;15488;48.114;11.532;2022-07-10T01:51:10;95885.00;;;26.70
15680;BMP180;15488;48.114;11.532;2022-07-10T01:53:38;95874.00;;;26.60
15680;BMP180;15488;48.114;11.532;2022-07-10T01:56:09;95880.00;;;26.50
15680;BMP180;15488;48.114;11.532;2022-07-10T01:58:37;95871.00;;;26.50
15680;BMP180;15488;48.114;11.532;2022-07-10T02:01:06;95867.00;;;26.40
15680;BMP180;15488;48.114;11.532;2022-07-10T02:03:33;95869.00;;;26.40
15680;BMP180;15488;48.114;11.532;2022-07-10T02:06:19;95869.00;;;26.30
15680;BMP180;15488;48.114;11.532;2022-07-10T02:08:46;95864.00;;;26.20
15680;BMP180;15488;48.114;11.532;2022-07-10T02:11:15;95856.00;;;26.20
15680;BMP180;15488;48.114;11.532;2022-07-10T02:13:43;95867.00;;;26.20
15680;BMP180;15488;48.114;11.532;2022-07-10T02:16:10;95859.00;;;26.20
15680;BMP180;15488;48.114;11.532;2022-07-10T02:18:38;95872.00;;;26.20
15680;BMP180;15488;48.114;11.532;2022-07-10T02:21:06;95867.00;;;26.20
15680;BMP180;15488;48.114;11.532;2022-07-10T02:23:34;95863.00;;;26.20
15680;BMP180;15488;48.114;11.532;2022-07-10T02:26:02;95864.00;;;26.30
15680;BMP180;15488;48.114;11.532;2022-07-10T02:28:31;95867.00;;;26.30
15680;BMP180;15488;48.114;11.532;2022-07-10T02:30:58;95863.00;;;26.30
15680;BMP180;15488;48.114;11.532;2022-07-10T02:33:26;95862.00;;;26.20
15680;BMP180;15488;48.114;11.532;2022-07-10T02:35:54;95859.00;;;26.20
15680;BMP180;15488;48.114;11.532;2022-07-10T02:38:21;95860.00;;;26.20
15680;BMP180;15488;48.114;11.532;2022-07-10T02:40:49;95854.00;;;26.10
15680;BMP180;15488;48.114;11.532;2022-07-10T02:43:16;95863.00;;;26.10
15680;BMP180;15488;48.114;11.532;2022-07-10T02:45:45;95864.00;;;26.10
15680;BMP180;15488;48.114;11.532;2022-07-10T02:48:13;95864.00;;;26.10
15680;BMP180;15488;48.114;11.532;2022-07-10T02:50:41;95868.00;;;26.10
15680;BMP180;15488;48.114;11.532;2022-07-10T02:53:08;95872.00;;;26.10
15680;BMP180;15488;48.114;11.532;2022-07-10T02:55:36;95863.00;;;26.10
15680;BMP180;15488;48.114;11.532;2022-07-10T02:58:03;95862.00;;;26.10
15680;BMP180;15488;48.114;11.532;2022-07-10T03:00:31;95865.00;;;26.10
15680;BMP180;15488;48.114;11.532;2022-07-10T03:03:00;95869.00;;;26.10
15680;BMP180;15488;48.114;11.532;2022-07-10T03:05:27;95866.00;;;26.10
15680;BMP180;15488;48.114;11.532;2022-07-10T03:07:55;95870.00;;;26.10
15680;BMP180;15488;48.114;11.532;2022-07-10T03:10:22;95868.00;;;26.10
15680;BMP180;15488;48.114;11.532;2022-07-10T03:12:50;95859.00;;;26.10
15680;BMP180;15488;48.114;11.532;2022-07-10T03:15:17;95863.00;;;26.10
15680;BMP180;15488;48.114;11.532;2022-07-10T03:17:45;95859.00;;;26.00
15680;BMP180;15488;48.114;11.532;2022-07-10T03:20:14;95855.00;;;26.00
15680;BMP180;15488;48.114;11.532;2022-07-10T03:22:41;95859.00;;;26.10
15680;BMP180;15488;48.114;11.532;2022-07-10T03:25:10;95852.00;;;26.00
15680;BMP180;15488;48.114;11.532;2022-07-10T03:27:37;95855.00;;;26.00
15680;BMP180;15488;48.114;11.532;2022-07-10T03:30:06;95857.00;;;26.00
15680;BMP180;15488;48.114;11.532;2022-07-10T03:32:34;95857.00;;;26.10
15680;BMP180;15488;48.114;11.532;2022-07-10T03:35:02;95864.00;;;26.10
15680;BMP180;15488;48.114;11.532;2022-07-10T03:37:31;95867.00;;;26.00
15680;BMP180;15488;48.114;11.532;2022-07-10T03:39:58;95863.00;;;26.00
15680;BMP180;15488;48.114;11.532;2022-07-10T03:42:26;95869.00;;;26.00
15680;BMP180;15488;48.114;11.532;2022-07-10T03:44:53;95862.00;;;25.90
15680;BMP180;15488;48.114;11.532;2022-07-10T03:47:21;95864.00;;;25.90
15680;BMP180;15488;48.114;11.532;2022-07-10T03:49:48;95868.00;;;25.90
15680;BMP180;15488;48.114;11.532;2022-07-10T03:52:16;95869.00;;;25.90
15680;BMP180;15488;48.114;11.532;2022-07-10T03:54:44;95874.00;;;25.90
15680;BMP180;15488;48.114;11.532;2022-07-10T03:57:12;95867.00;;;25.90
15680;BMP180;15488;48.114;11.532;2022-07-10T03:59:57;95862.00;;;25.90
15680;BMP180;15488;48.114;11.532;2022-07-10T04:02:24;95857.00;;;25.90
15680;BMP180;15488;48.114;11.532;2022-07-10T04:04:51;95855.00;;;25.90
15680;BMP180;15488;48.114;11.532;2022-07-10T04:07:19;95863.00;;;26.00
15680;BMP180;15488;48.114;11.532;2022-07-10T04:09:48;95857.00;;;26.00
15680;BMP180;15488;48.114;11.532;2022-07-10T04:12:15;95858.00;;;26.00
15680;BMP180;15488;48.114;11.532;2022-07-10T04:14:43;95860.00;;;26.10
15680;BMP180;15488;48.114;11.532;2022-07-10T04:17:11;95863.00;;;26.10
15680;BMP180;15488;48.114;11.532;2022-07-10T04:19:38;95858.00;;;26.10
15680;BMP180;15488;48.114;11.532;2022-07-10T04:22:06;95853.00;;;26.10
15680;BMP180;15488;48.114;11.532;2022-07-10T04:24:33;95850.00;;;26.10
15680;BMP180;15488;48.114;11.532;2022-07-10T04:27:03;95851.00;;;26.10
15680;BMP180;15488;48.114;11.532;2022-07-10T04:29:30;95854.00;;;26.10
15680;BMP180;15488;48.114;11.532;2022-07-10T04:31:58;95846.00;;;26.00
15680;BMP180;15488;48.114;11.532;2022-07-10T04:34:26;95851.00;;;26.10
15680;BMP180;15488;48.114;11.532;2022-07-10T04:36:53;95852.00;;;26.10
15680;BMP180;15488;48.114;11.532;2022-07-10T04:39:21;95852.00;;;26.10
15680;BMP180;15488;48.114;11.532;2022-07-10T04:41:49;95849.00;;;26.10
15680;BMP180;15488;48.114;11.532;2022-07-10T04:44:18;95850.00;;;26.10
15680;BMP180;15488;48.114;11.532;2022-07-10T04:46:46;95852.00;;;26.20
15680;BMP180;15488;48.114;11.532;2022-07-10T04:49:14;95850.00;;;26.20
15680;BMP180;15488;48.114;11.532;2022-07-10T04:51:41;95851.00;;;26.20
15680;BMP180;15488;48.114;11.532;2022-07-10T04:54:09;95851.00;;;26.20
15680;BMP180;15488;48.114;11.532;2022-07-10T04:56:36;95858.00;;;26.20
15680;BMP180;15488;48.114;11.532;2022-07-10T04:59:04;95857.00;;;26.20
15680;BMP180;15488;48.114;11.532;2022-07-10T05:01:33;95866.00;;;26.20
15680;BMP180;15488;48.114;11.532;2022-07-10T05:04:01;95862.00;;;26.20
15680;BMP180;15488;48.114;11.532;2022-07-10T05:06:28;95868.00;;;26.20
15680;BMP180;15488;48.114;11.532;2022-07-10T05:08:56;95869.00;;;26.20
15680;BMP180;15488;48.114;11.532;2022-07-10T05:11:24;95872.00;;;26.20
15680;BMP180;15488;48.114;11.532;2022-07-10T05:13:52;95876.00;;;26.30
15680;BMP180;15488;48.114;11.532;2022-07-10T05:16:19;95880.00;;;26.30
15680;BMP180;15488;48.114;11.532;2022-07-10T05:18:48;95881.00;;;26.30
15680;BMP180;15488;48.114;11.532;2022-07-10T05:21:16;95883.00;;;26.40
15680;BMP180;15488;48.114;11.532;2022-07-10T05:23:43;95879.00;;;26.40
15680;BMP180;15488;48.114;11.532;2022-07-10T05:26:11;95887.00;;;26.40
15680;BMP180;15488;48.114;11.532;2022-07-10T05:28:39;95882.00;;;26.40
15680;BMP180;15488;48.114;11.532;2022-07-10T05:31:06;95885.00;;;26.50
15680;BMP180;15488;48.114;11.532;2022-07-10T05:33:34;95883.00;;;26.50
15680;BMP180;15488;48.114;11.532;2022-07-10T05:36:06;95889.00;;;26.50
15680;BMP180;15488;48.114;11.532;2022-07-10T05:38:34;95890.00;;;26.50
15680;BMP180;15488;48.114;11.532;2022-07-10T05:41:02;95890.00;;;26.50
15680;BMP180;15488;48.114;11.532;2022-07-10T05:43:30;95891.00;;;26.60
15680;BMP180;15488;48.114;11.532;2022-07-10T05:45:57;95891.00;;;26.60
15680;BMP180;15488;48.114;11.532;2022-07-10T05:48:25;95886.00;;;26.70
15680;BMP180;15488;48.114;11.532;2022-07-10T05:50:53;95889.00;;;26.80
15680;BMP180;15488;48.114;11.532;2022-07-10T05:53:22;95883.00;;;26.90
15680;BMP180;15488;48.114;11.532;2022-07-10T05:55:49;95890.00;;;27.10
15680;BMP180;15488;48.114;11.532;2022-07-10T05:58:17;95889.00;;;27.10
15680;BMP180;15488;48.114;11.532;2022-07-10T06:00:45;95881.00;;;27.20
15680;BMP180;15488;48.114;11.532;2022-07-10T06:03:13;95882.00;;;27.20
15680;BMP180;15488;48.114;11.532;2022-07-10T06:05:40;95883.00;;;27.30
15680;BMP180;15488;48.114;11.532;2022-07-10T06:08:08;95877.00;;;27.30
15680;BMP180;15488;48.114;11.532;2022-07-10T06:10:39;95882.00;;;27.50
15680;BMP180;15488;48.114;11.532;2022-07-10T06:13:06;95880.00;;;27.50
15680;BMP180;15488;48.114;11.532;2022-07-10T06:15:34;95883.00;;;27.60
15680;BMP180;15488;48.114;11.532;2022-07-10T06:18:01;95878.00;;;27.60
15680;BMP180;15488;48.114;11.532;2022-07-10T06:20:29;95883.00;;;27.70
15680;BMP180;15488;48.114;11.532;2022-07-10T06:22:57;95887.00;;;27.70
15680;BMP180;15488;48.114;11.532;2022-07-10T06:25:25;95892.00;;;27.80
15680;BMP180;15488;48.114;11.532;2022-07-10T06:27:53;95890.00;;;27.80
15680;BMP180;15488;48.114;11.532;2022-07-10T06:30:21;95895.00;;;27.80
15680;BMP180;15488;48.114;11.532;2022-07-10T06:32:48;95897.00;;;27.70
15680;BMP180;15488;48.114;11.532;2022-07-10T06:35:16;95897.00;;;27.60
15680;BMP180;15488;48.114;11.532;2022-07-10T06:37:43;95891.00;;;27.60
15680;BMP180;15488;48.114;11.532;2022-07-10T06:40:13;95891.00;;;27.70
15680;BMP180;15488;48.114;11.532;2022-07-10T06:42:41;95895.00;;;27.70
15680;BMP180;15488;48.114;11.532;2022-07-10T06:45:11;95897.00;;;27.70
15680;BMP180;15488;48.114;11.532;2022-07-10T06:47:38;95900.00;;;27.70
15680;BMP180;15488;48.114;11.532;2022-07-10T06:50:29;95894.00;;;27.70
15680;BMP180;15488;48.114;11.532;2022-07-10T06:52:57;95888.00;;;27.60
15680;BMP180;15488;48.114;11.532;2022-07-10T06:55:25;95888.00;;;27.60
15680;BMP180;15488;48.114;11.532;2022-07-10T06:57:53;95887.00;;;27.50
15680;BMP180;15488;48.114;11.532;2022-07-10T07:00:22;95894.00;;;27.50
15680;BMP180;15488;48.114;11.532;2022-07-10T07:02:49;95893.00;;;27.60
15680;BMP180;15488;48.114;11.532;2022-07-10T07:05:17;95889.00;;;27.60
15680;BMP180;15488;48.114;11.532;2022-07-10T07:07:45;95893.00;;;27.70
15680;BMP180;15488;48.114;11.532;2022-07-10T07:10:12;95894.00;;;27.80
15680;BMP180;15488;48.114;11.532;2022-07-10T07:12:40;95888.00;;;27.80
15680;BMP180;15488;48.114;11.532;2022-07-10T07:15:08;95894.00;;;27.90
15680;BMP180;15488;48.114;11.532;2022-07-10T07:17:41;95894.00;;;28.00
15680;BMP180;15488;48.114;11.532;2022-07-10T07:20:33;95898.00;;;28.00
15680;BMP180;15488;48.114;11.532;2022-07-10T07:23:18;95901.00;;;28.00
15680;BMP180;15488;48.114;11.532;2022-07-10T07:25:46;95910.00;;;27.90
15680;BMP180;15488;48.114;11.532;2022-07-10T07:28:14;95906.00;;;28.00
15680;BMP180;15488;48.114;11.532;2022-07-10T07:30:44;95913.00;;;27.90
15680;BMP180;15488;48.114;11.532;2022-07-10T07:33:13;95910.00;;;27.90
15680;BMP180;15488;48.114;11.532;2022-07-10T07:35:41;95914.00;;;27.80
15680;BMP180;15488;48.114;11.532;2022-07-10T07:38:09;95921.00;;;27.80
15680;BMP180;15488;48.114;11.532;2022-07-10T07:40:36;95924.00;;;27.80
15680;BMP180;15488;48.114;11.532;2022-07-10T07:43:04;95926.00;;;27.70
15680;BMP180;15488;48.114;11.532;2022-07-10T07:45:32;95925.00;;;27.70
15680;BMP180;15488;48.114;11.532;2022-07-10T07:48:00;95916.00;;;27.70
15680;BMP180;15488;48.114;11.532;2022-07-10T07:50:31;95922.00;;;27.90
15680;BMP180;15488;48.114;11.532;2022-07-10T07:52:59;95928.00;;;28.10
15680;BMP180;15488;48.114;11.532;2022-07-10T07:55:27;95922.00;;;28.20
15680;BMP180;15488;48.114;11.532;2022-07-10T07:57:56;95926.00;;;28.60
15680;BMP180;15488;48.114;11.532;2022-07-10T08:00:25;95927.00;;;28.80
15680;BMP180;15488;48.114;11.532;2022-07-10T08:02:54;95931.00;;;29.20
15680;BMP180;15488;48.114;11.532;2022-07-10T08:05:22;95924.00;;;29.20
15680;BMP180;15488;48.114;11.532;2022-07-10T08:07:53;95923.00;;;29.10
15680;BMP180;15488;48.114;11.532;2022-07-10T08:10:22;95924.00;;;29.10
15680;BMP180;15488;48.114;11.532;2022-07-10T08:12:51;95925.00;;;29.30
15680;BMP180;15488;48.114;11.532;2022-07-10T08:15:19;95925.00;;;29.20
15680;BMP180;15488;48.114;11.532;2022-07-10T08:17:48;95921.00;;;29.20
15680;BMP180;15488;48.114;11.532;2022-07-10T08:20:16;95924.00;;;29.30
15680;BMP180;15488;48.114;11.532;2022-07-10T08:22:44;95926.00;;;29.80
15680;BMP180;15488;48.114;11.532;2022-07-10T08:25:14;95921.00;;;30.10
15680;BMP180;15488;48.114;11.532;2022-07-10T08:27:42;95924.00;;;30.40
15680;BMP180;15488;48.114;11.532;2022-07-10T08:30:10;95918.00;;;30.70
15680;BMP180;15488;48.114;11.532;2022-07-10T08:32:39;95918.00;;;31.00
15680;BMP180;15488;48.114;11.532;2022-07-10T08:35:08;95913.00;;;31.30
15680;BMP180;15488;48.114;11.532;2022-07-10T08:37:39;95906.00;;;31.40
15680;BMP180;15488;48.114;11.532;2022-07-10T08:40:09;95901.00;;;31.70
15680;BMP180;15488;48.114;11.532;2022-07-10T08:42:38;95909.00;;;31.70
15680;BMP180;15488;48.114;11.532;2022-07-10T08:45:06;95910.00;;;31.30
15680;BMP180;15488;48.114;11.532;2022-07-10T08:47:35;95910.00;;;31.00
15680;BMP180;15488;48.114;11.532;2022-07-10T08:50:03;95911.00;;;30.70
15680;BMP180;15488;48.114;11.532;2022-07-10T08:52:35;95904.00;;;30.50
15680;BMP180;15488;48.114;11.532;2022-07-10T08:55:05;95911.00;;;30.50
15680;BMP180;15488;48.114;11.532;2022-07-10T08:57:33;95910.00;;;30.50
15680;BMP180;15488;48.114;11.532;2022-07-10T09:00:03;95914.00;;;30.90
15680;BMP180;15488;48.114;11.532;2022-07-10T09:02:31;95900.00;;;31.20
15680;BMP180;15488;48.114;11.532;2022-07-10T09:04:58;95918.00;;;31.10
15680;BMP180;15488;48.114;11.532;2022-07-10T09:07:35;95915.00;;;31.10
15680;BMP180;15488;48.114;11.532;2022-07-10T09:10:08;95912.00;;;31.00
15680;BMP180;15488;48.114;11.532;2022-07-10T09:12:51;95919.00;;;30.90
15680;BMP180;15488;48.114;11.532;2022-07-10T09:15:21;95917.00;;;31.00
15680;BMP180;15488;48.114;11.532;2022-07-10T09:17:51;95913.00;;;31.40
15680;BMP180;15488;48.114;11.532;2022-07-10T09:20:30;95913.00;;;31.70
15680;BMP180;15488;48.114;11.532;2022-07-10T09:22:59;95909.00;;;31.70
15680;BMP180;15488;48.114;11.532;2022-07-10T09:25:36;95901.00;;;31.90
15680;BMP180;15488;48.114;11.532;2022-07-10T09:28:03;95908.00;;;31.70
15680;BMP180;15488;48.114;11.532;2022-07-10T09:30:38;95908.00;;;31.40
15680;BMP180;15488;48.114;11.532;2022-07-10T09:33:19;95901.00;;;31.40
15680;BMP180;15488;48.114;11.532;2022-07-10T09:36:03;95907.00;;;31.60
15680;BMP180;15488;48.114;11.532;2022-07-10T09:38:53;95916.00;;;31.50
15680;BMP180;15488;48.114;11.532;2022-07-10T09:41:28;95913.00;;;31.10
15680;BMP180;15488;48.114;11.532;2022-07-10T09:43:57;95911.00;;;31.00
15680;BMP180;15488;48.114;11.532;2022-07-10T09:46:28;95912.00;;;30.90
15680;BMP180;15488;48.114;11.532;2022-07-10T09:49:08;95906.00;;;31.10
15680;BMP180;15488;48.114;11.532;2022-07-10T09:51:37;95907.00;;;31.20
15680;BMP180;15488;48.114;11.532;2022-07-10T09:54:07;95904.00;;;31.30
15680;BMP180;15488;48.114;11.532;2022-07-10T09:56:40;95909.00;;;31.10
15680;BMP180;15488;48.114;11.532;2022-07-10T09:59:10;95910.00;;;30.90
15680;BMP180;15488;48.114;11.532;2022-07-10T10:01:42;95901.00;;;30.70
15680;BMP180;15488;48.114;11.532;2022-07-10T10:04:10;95903.00;;;30.50
15680;BMP180;15488;48.114;11.532;2022-07-10T10:06:39;95902.00;;;30.40
15680;BMP180;15488;48.114;11.532;2022-07-10T10:09:11;95901.00;;;30.30
15680;BMP180;15488;48.114;11.532;2022-07-10T10:11:41;95905.00;;;30.30
15680;BMP180;15488;48.114;11.532;2022-07-10T10:14:11;95892.00;;;30.30
15680;BMP180;15488;48.114;11.532;2022-07-10T10:16:44;95902.00;;;30.30
15680;BMP180;15488;48.114;11.532;2022-07-10T10:19:12;95895.00;;;30.20
15680;BMP180;15488;48.114;11.532;2022-07-10T10:21:58;95888.00;;;30.20
15680;BMP180;15488;48.114;11.532;2022-07-10T10:24:26;95898.00;;;30.20
15680;BMP180;15488;48.114;11.532;2022-07-10T10:26:54;95887.00;;;30.10
15680;BMP180;15488;48.114;11.532;2022-07-10T10:29:22;95891.00;;;30.10
15680;BMP180;15488;48.114;11.532;2022-07-10T10:31:51;95894.00;;;30.10
15680;BMP180;15488;48.114;11.532;2022-07-10T10:34:37;95891.00;;;30.10
15680;BMP180;15488;48.114;11.532;2022-07-10T10:37:05;95882.00;;;30.00
15680;BMP180;15488;48.114;11.532;2022-07-10T10:39:52;95888.00;;;30.00
15680;BMP180;15488;48.114;11.532;2022-07-10T10:42:33;95892.00;;;30.20
15680;BMP180;15488;48.114;11.532;2022-07-10T10:45:27;95896.00;;;30.10
15680;BMP180;15488;48.114;11.532;2022-07-10T10:48:01;95890.00;;;29.80
15680;BMP180;15488;48.114;11.532;2022-07-10T10:50:38;95879.00;;;29.80
15680;BMP180;15488;48.114;11.532;2022-07-10T10:53:13;95875.00;;;29.70
15680;BMP180;15488;48.114;11.532;2022-07-10T10:55:41;95876.00;;;29.70
15680;BMP180;15488;48.114;11.532;2022-07-10T10:58:15;95869.00;;;29.60
15680;BMP180;15488;48.114;11.532;2022-07-10T11:00:44;95873.00;;;29.60
15680;BMP180;15488;48.114;11.532;2022-07-10T11:03:20;95876.00;;;29.60
15680;BMP180;15488;48.114;11.532;2022-07-10T11:05:49;95876.00;;;29.60
15680;BMP180;15488;48.114;11.532;2022-07-10T11:08:37;95886.00;;;29.60
15680;BMP180;15488;48.114;11.532;2022-07-10T11:11:39;95877.00;;;29.50
15680;BMP180;15488;48.114;11.532;2022-07-10T11:14:08;95877.00;;;29.50
15680;BMP180;15488;48.114;11.532;2022-07-10T11:16:45;95878.00;;;29.40
15680;BMP180;15488;48.114;11.532;2022-07-10T11:19:20;95876.00;;;29.50
15680;BMP180;15488;48.114;11.532;2022-07-10T11:21:56;95875.00;;;29.50
15680;BMP180;15488;48.114;11.532;2022-07-10T11:24:42;95871.00;;;29.50
15680;BMP180;15488;48.114;11.532;2022-07-10T11:27:58;95876.00;;;29.60
15680;BMP180;15488;48.114;11.532;2022-07-10T11:30:46;95875.00;;;29.50
15680;BMP180;15488;48.114;11.532;2022-07-10T11:33:15;95871.00;;;29.50
15680;BMP180;15488;48.114;11.532;2022-07-10T11:35:47;95879.00;;;29.50
15680;BMP180;15488;48.114;11.532;2022-07-10T11:38:19;95879.00;;;29.40
15680;BMP180;15488;48.114;11.532;2022-07-10T11:40:47;95874.00;;;29.40
15680;BMP180;15488;48.114;11.532;2022-07-10T11:43:15;95866.00;;;29.40
15680;BMP180;15488;48.114;11.532;2022-07-10T11:45:45;95867.00;;;29.30
15680;BMP180;15488;48.114;11.532;2022-07-10T11:48:19;95861.00;;;29.30
15680;BMP180;15488;48.114;11.532;2022-07-10T11:50:49;95865.00;;;29.30
15680;BMP180;15488;48.114;11.532;2022-07-10T11:53:23;95867.00;;;29.30
15680;BMP180;15488;48.114;11.532;2022-07-10T11:55:51;95879.00;;;29.30
15680;BMP180;15488;48.114;11.532;2022-07-10T11:58:19;95876.00;;;29.30
15680;BMP180;15488;48.114;11.532;2022-07-10T12:00:58;95872.00;;;29.30
15680;BMP180;15488;48.114;11.532;2022-07-10T12:03:27;95871.00;;;29.30
15680;BMP180;15488;48.114;11.532;2022-07-10T12:06:02;95863.00;;;29.20
15680;BMP180;15488;48.114;11.532;2022-07-10T12:08:30;95868.00;;;29.30
15680;BMP180;15488;48.114;11.532;2022-07-10T12:10:57;95865.00;;;29.30
15680;BMP180;15488;48.114;11.532;2022-07-10T12:13:24;95867.00;;;29.30
15680;BMP180;15488;48.114;11.532;2022-07-10T12:15:52;95869.00;;;29.10
15680;BMP180;15488;48.114;11.532;2022-07-10T12:18:21;95868.00;;;29.30
15680;BMP180;15488;48.114;11.532;2022-07-10T12:20:49;95869.00;;;29.40
15680;BMP180;15488;48.114;11.532;2022-07-10T12:23:20;95860.00;;;29.40
15680;BMP180;15488;48.114;11.532;2022-07-10T12:25:49;95864.00;;;29.40
15680;BMP180;15488;48.114;11.532;2022-07-10T12:28:17;95868.00;;;29.40
15680;BMP180;15488;48.114;11.532;2022-07-10T12:30:46;95873.00;;;29.40
15680;BMP180;15488;48.114;11.532;2022-07-10T12:33:15;95867.00;;;29.40
15680;BMP180;15488;48.114;11.532;2022-07-10T12:35:51;95867.00;;;29.50
15680;BMP180;15488;48.114;11.532;2022-07-10T12:38:22;95866.00;;;29.40
15680;BMP180;15488;48.114;11.532;2022-07-10T12:40:50;95862.00;;;29.50
15680;BMP180;15488;48.114;11.532;2022-07-10T12:43:25;95859.00;;;29.50
15680;BMP180;15488;48.114;11.532;2022-07-10T12:46:12;95857.00;;;29.50
15680;BMP180;15488;48.114;11.532;2022-07-10T12:48:42;95859.00;;;29.50
15680;BMP180;15488;48.114;11.532;2022-07-10T12:51:23;95859.00;;;29.50
15680;BMP180;15488;48.114;11.532;2022-07-10T12:53:53;95869.00;;;29.50
15680;BMP180;15488;48.114;11.532;2022-07-10T12:56:31;95875.00;;;29.50
15680;BMP180;15488;48.114;11.532;2022-07-10T12:58:58;95870.00;;;29.50
15680;BMP180;15488;48.114;11.532;2022-07-10T13:01:27;95880.00;;;29.60
15680;BMP180;15488;48.114;11.532;2022-07-10T13:03:59;95869.00;;;29.60
15680;BMP180;15488;48.114;11.532;2022-07-10T13:06:28;95875.00;;;29.60
15680;BMP180;15488;48.114;11.532;2022-07-10T13:08:57;95870.00;;;29.50
15680;BMP180;15488;48.114;11.532;2022-07-10T13:11:25;95876.00;;;29.40
15680;BMP180;15488;48.114;11.532;2022-07-10T13:13:54;95885.00;;;29.50
15680;BMP180;15488;48.114;11.532;2022-07-10T13:16:22;95878.00;;;29.40
15680;BMP180;15488;48.114;11.532;2022-07-10T13:18:50;95881.00;;;29.40
15680;BMP180;15488;48.114;11.532;2022-07-10T13:21:17;95877.00;;;29.40
15680;BMP180;15488;48.114;11.532;2022-07-10T13:23:45;95883.00;;;29.40
15680;BMP180;15488;48.114;11.532;2022-07-10T13:26:15;95887.00;;;29.30
15680;BMP180;15488;48.114;11.532;2022-07-10T13:28:43;95878.00;;;29.40
15680;BMP180;15488;48.114;11.532;2022-07-10T13:31:10;95883.00;;;29.30
15680;BMP180;15488;48.114;11.532;2022-07-10T13:33:38;95885.00;;;29.30
15680;BMP180;15488;48.114;11.532;2022-07-10T13:36:06;95879.00;;;29.30
15680;BMP180;15488;48.114;11.532;2022-07-10T13:38:34;95889.00;;;29.30
15680;BMP180;15488;48.114;11.532;2022-07-10T13:41:03;95880.00;;;29.20
15680;BMP180;15488;48.114;11.532;2022-07-10T13:43:32;95884.00;;;29.20
15680;BMP180;15488;48.114;11.532;2022-07-10T13:46:01;95886.00;;;29.30
15680;BMP180;15488;48.114;11.532;2022-07-10T13:48:29;95877.00;;;29.20
15680;BMP180;15488;48.114;11.532;2022-07-10T13:50:57;95887.00;;;29.20
15680;BMP180;15488;48.114;11.532;2022-07-10T13:53:24;95877.00;;;29.10
15680;BMP180;15488;48.114;11.532;2022-07-10T13:55:52;95870.00;;;29.00
15680;BMP180;15488;48.114;11.532;2022-07-10T13:58:20;95874.00;;;28.90
15680;BMP180;15488;48.114;11.532;2022-07-10T14:00:49;95865.00;;;29.00
15680;BMP180;15488;48.114;11.532;2022-07-10T14:03:17;95886.00;;;29.30
15680;BMP180;15488;48.114;11.532;2022-07-10T14:05:44;95882.00;;;29.10
15680;BMP180;15488;48.114;11.532;2022-07-10T14:08:12;95876.00;;;29.00
15680;BMP180;15488;48.114;11.532;2022-07-10T14:10:39;95884.00;;;29.00
15680;BMP180;15488;48.114;11.532;2022-07-10T14:13:07;95885.00;;;29.10